Time;durP1;ratioP1;P1;durP2;ratioP2;P2;SDS_P1;SDS_P2;PMS_P1;PMS_P2;Temp;Humidity;BMP_temperature;BMP_pressure;BME280_temperature;BME280_humidity;BME280_pressure;Samples;Min_cycle;Max_cycle;Signal;HPM_P1;HPM_P2
2022/01/30 00:00:00;;;;;;;23.63;7.10;;;;;;;7.28;65.40;100851.88;5065581;28;20489;-74
2022/01/30 00:02:27;;;;;;;22.73;6.40;;;;;;;7.46;65.09;100873.94;5065822;28;20187;-74
2022/01/30 00:04:52;;;;;;;23.37;6.87;;;;;;;7.73;65.35;100858.13;5080174;28;20522;-73
2022/01/30 00:07:18;;;;;;;22.87;7.30;;;;;;;7.62;65.26;100860.50;5079685;28;20546;-74
2022/01/30 00:09:43;;;;;;;23.43;7.50;;;;;;;7.32;65.74;100883.94;5079212;28;20284;-74
2022/01/30 00:12:09;;;;;;;24.00;7.30;;;;;;;7.56;64.50;100883.69;5074165;28;20173;-73
2022/01/30 00:14:37;;;;;;;24.73;5.80;;;;;;;7.05;68.64;100875.50;5059938;28;20162;-74
2022/01/30 00:17:11;;;;;;;16.30;5.93;;;;;;;7.07;69.09;100884.19;5042394;28;20517;-72
2022/01/30 00:19:42;;;;;;;13.80;6.53;;;;;;;7.17;68.72;100881.84;5059278;28;20922;-73
2022/01/30 00:24:56;;;;;;;23.33;6.20;;;;;;;7.06;69.75;100907.47;5059322;28;20415;-73
2022/01/30 00:27:30;;;;;;;22.67;7.30;;;;;;;7.10;69.11;100879.94;5059219;28;20463;-73
2022/01/30 00:29:55;;;;;;;22.03;7.07;;;;;;;6.65;69.61;100882.19;5059270;28;20438;-73
2022/01/30 00:32:21;;;;;;;27.17;8.10;;;;;;;6.91;68.54;100867.38;5059448;28;20416;-76
2022/01/30 00:34:46;;;;;;;29.73;8.70;;;;;;;7.15;67.27;100876.63;5059080;28;20235;-72
2022/01/30 00:37:11;;;;;;;21.47;6.83;;;;;;;6.86;66.49;100870.66;5059624;28;20208;-76
2022/01/30 00:39:37;;;;;;;24.40;7.07;;;;;;;7.42;65.29;100868.66;5059090;28;20185;-76
2022/01/30 00:42:02;;;;;;;24.87;6.60;;;;;;;10.04;70.42;100853.72;5041402;28;20250;-68
2022/01/30 00:44:28;;;;;;;17.83;6.00;;;;;;;10.50;57.37;100858.69;5058939;28;20178;-70
2022/01/30 00:46:55;;;;;;;21.53;6.70;;;;;;;8.59;60.25;100873.00;5058848;28;20483;-75
2022/01/30 00:49:20;;;;;;;20.63;7.07;;;;;;;7.63;64.04;100892.47;5058955;28;20184;-75
2022/01/30 00:51:46;;;;;;;21.00;7.23;;;;;;;7.73;64.30;100884.09;5059519;28;20382;-75
2022/01/30 00:54:11;;;;;;;27.20;7.23;;;;;;;7.57;64.04;100856.91;5058929;28;20328;-76
2022/01/30 00:56:36;;;;;;;29.23;7.60;;;;;;;7.72;62.39;100867.63;5041533;28;20172;-76
2022/01/30 00:59:02;;;;;;;18.67;7.20;;;;;;;8.18;63.63;100877.31;5059197;28;20569;-76
2022/01/30 01:01:27;;;;;;;24.37;7.20;;;;;;;7.61;62.79;100866.50;5058639;28;20173;-75
2022/01/30 01:03:52;;;;;;;19.70;6.87;;;;;;;7.25;65.59;100869.94;5058987;28;20170;-75
2022/01/30 01:06:17;;;;;;;22.33;7.43;;;;;;;6.72;71.24;100930.78;5059409;28;20185;-76
2022/01/30 01:08:56;;;;;;;24.30;6.30;;;;;;;6.65;71.15;100925.38;5058891;28;20442;-75
2022/01/30 01:24:37;;;;;;;28.00;5.93;;;;;;;6.95;69.00;100898.56;5043817;28;20451;-77
2022/01/30 01:27:03;;;;;;;20.57;6.13;;;;;;;6.76;67.51;100889.41;5041235;28;20487;-77
2022/01/30 01:29:28;;;;;;;25.80;6.97;;;;;;;7.10;67.31;100898.09;5058401;28;20175;-77
2022/01/30 01:31:53;;;;;;;29.77;7.40;;;;;;;6.98;67.02;100922.84;5058550;28;20170;-77
2022/01/30 01:36:44;;;;;;;33.83;8.07;;;;;;;6.87;67.31;100886.28;5058614;28;20165;-76
2022/01/30 01:39:09;;;;;;;16.37;5.63;;;;;;;6.61;67.59;100895.03;5058454;28;20185;-77
2022/01/30 01:41:36;;;;;;;18.23;5.53;;;;;;;6.99;67.43;100919.41;5058565;28;20166;-76
2022/01/30 01:44:02;;;;;;;19.97;5.47;;;;;;;6.51;68.44;100907.72;5058152;28;20165;-78
2022/01/30 01:46:33;;;;;;;16.93;6.10;;;;;;;7.66;66.71;100909.03;5058642;28;20865;-77
2022/01/30 01:48:58;;;;;;;24.37;6.67;;;;;;;6.90;67.49;100893.22;5058373;28;20419;-77
2022/01/30 01:51:26;;;;;;;14.97;5.57;;;;;;;7.08;68.14;100879.91;5058453;28;20408;-76
2022/01/30 01:53:55;;;;;;;18.13;6.30;;;;;;;6.88;68.54;100888.00;5058275;28;20177;-77
2022/01/30 01:56:22;;;;;;;22.20;6.10;;;;;;;6.83;68.86;100906.88;5058172;28;20404;-76
2022/01/30 01:58:48;;;;;;;23.30;6.53;;;;;;;6.76;68.87;100899.75;5058349;28;20415;-78
2022/01/30 02:01:13;;;;;;;20.00;6.70;;;;;;;7.18;67.69;100894.84;5058809;28;20379;-77
2022/01/30 02:03:39;;;;;;;18.93;6.73;;;;;;;7.46;68.09;100899.88;5057992;28;20570;-77
2022/01/30 02:06:07;;;;;;;28.37;8.30;;;;;;;7.25;67.53;100904.56;5058048;28;20231;-76
2022/01/30 02:08:43;;;;;;;17.10;6.97;;;;;;;7.16;66.98;100926.78;5058618;28;20403;-77
2022/01/30 02:11:27;;;;;;;19.63;6.30;;;;;;;7.23;68.22;100931.28;5058515;28;20442;-77
2022/01/30 02:14:21;;;;;;;20.20;6.87;;;;;;;7.09;66.84;100923.13;5057857;28;20387;-77
2022/01/30 02:25:12;;;;;;;16.40;5.90;;;;;;;6.85;67.44;100921.63;5057913;28;20394;-76
2022/01/30 02:27:38;;;;;;;23.57;6.50;;;;;;;7.26;67.35;100913.19;5057919;28;20464;-78
2022/01/30 02:30:15;;;;;;;27.63;8.07;;;;;;;6.90;67.19;100913.97;5057830;28;20420;-78
2022/01/30 02:32:41;;;;;;;28.93;7.70;;;;;;;6.95;67.32;100919.28;5060504;28;20408;-77
2022/01/30 02:35:06;;;;;;;27.73;6.77;;;;;;;6.52;68.37;100939.66;5061181;28;20457;-78
2022/01/30 02:37:32;;;;;;;26.80;7.63;;;;;;;7.05;66.27;100921.31;5061364;28;20170;-76
2022/01/30 02:39:57;;;;;;;30.20;7.33;;;;;;;7.41;66.05;100929.16;5061340;28;20189;-77
2022/01/30 02:42:27;;;;;;;30.63;8.03;;;;;;;6.89;65.84;100938.16;5061877;28;20162;-76
2022/01/30 02:44:56;;;;;;;23.73;7.07;;;;;;;6.86;66.01;100917.31;5044045;28;20410;-76
2022/01/30 02:47:27;;;;;;;22.10;6.47;;;;;;;7.13;62.78;100927.56;5061216;28;20471;-79
2022/01/30 02:52:40;;;;;;;18.67;6.30;;;;;;;6.69;62.60;100924.63;5061381;28;20394;-77
2022/01/30 02:55:06;;;;;;;28.57;6.87;;;;;;;6.80;61.59;100914.56;5073906;28;20419;-76
2022/01/30 02:57:31;;;;;;;18.90;5.80;;;;;;;6.77;62.21;100922.25;5073667;28;20411;-77
2022/01/30 02:59:58;;;;;;;13.30;5.43;;;;;;;6.66;62.22;100912.47;5075457;28;20441;-77
2022/01/30 03:02:23;;;;;;;22.27;6.73;;;;;;;6.82;63.69;100937.09;5065806;28;20412;-77
2022/01/30 03:04:48;;;;;;;20.10;6.83;;;;;;;6.57;64.32;100915.66;5061687;28;20178;-77
2022/01/30 03:07:15;;;;;;;21.83;7.50;;;;;;;7.06;64.33;100943.78;5062015;28;20197;-77
2022/01/30 03:09:40;;;;;;;28.10;6.97;;;;;;;6.52;64.53;100930.19;5061440;28;20174;-77
2022/01/30 03:12:06;;;;;;;22.80;8.40;;;;;;;6.71;63.94;100949.75;5061307;28;20628;-76
2022/01/30 03:14:31;;;;;;;21.23;6.70;;;;;;;6.97;63.50;100897.75;5061260;28;20254;-76
2022/01/30 03:16:57;;;;;;;24.63;7.10;;;;;;;6.87;63.01;100914.78;5061023;28;20412;-77
2022/01/30 03:19:22;;;;;;;23.33;6.83;;;;;;;7.20;64.34;100919.09;5060724;28;20223;-76
2022/01/30 03:21:48;;;;;;;25.53;7.10;;;;;;;6.82;62.12;100911.19;5061272;28;20416;-77
2022/01/30 03:24:13;;;;;;;24.93;6.40;;;;;;;6.82;60.86;100915.47;5060826;28;20184;-76
2022/01/30 03:26:40;;;;;;;20.33;7.43;;;;;;;6.58;60.98;100938.13;5060737;28;20205;-80
2022/01/30 03:29:07;;;;;;;23.10;6.90;;;;;;;7.00;61.04;100928.94;5061253;28;20165;-78
2022/01/30 03:31:37;;;;;;;31.13;6.53;;;;;;;6.90;61.47;100925.22;5063607;28;20401;-77
2022/01/30 03:34:03;;;;;;;25.20;8.33;;;;;;;7.21;60.37;100939.03;5061587;28;20503;-76
2022/01/30 03:36:29;;;;;;;17.13;5.27;;;;;;;6.70;60.92;100929.84;5060895;28;20463;-76
2022/01/30 03:38:54;;;;;;;25.73;6.17;;;;;;;6.54;63.12;100938.00;5060452;28;20410;-78
2022/01/30 03:41:19;;;;;;;21.83;7.00;;;;;;;6.73;61.39;100958.41;5060467;28;20562;-76
2022/01/30 03:43:45;;;;;;;18.93;6.57;;;;;;;6.79;61.50;100957.72;5060722;28;20256;-79
2022/01/30 03:46:10;;;;;;;24.50;7.17;;;;;;;6.68;61.15;100964.31;5060348;28;20177;-76
2022/01/30 03:48:35;;;;;;;17.00;6.90;;;;;;;6.65;61.89;100975.47;5060178;28;20192;-76
2022/01/30 03:51:01;;;;;;;24.03;7.10;;;;;;;7.04;62.60;100980.03;5060685;28;20433;-77
2022/01/30 03:53:26;;;;;;;26.90;7.23;;;;;;;7.36;61.49;100992.09;5060190;28;20204;-76
2022/01/30 03:55:51;;;;;;;19.73;6.63;;;;;;;7.20;63.79;100952.81;5060166;28;20248;-77
2022/01/30 03:58:19;;;;;;;20.00;6.93;;;;;;;6.53;63.20;100965.59;5060497;28;20170;-77
2022/01/30 04:00:44;;;;;;;20.67;6.83;;;;;;;6.69;62.52;100966.94;5060279;28;20174;-76
2022/01/30 04:03:10;;;;;;;18.93;6.40;;;;;;;6.87;61.05;100968.31;5060042;28;20439;-76
2022/01/30 04:05:35;;;;;;;18.70;6.37;;;;;;;7.21;63.90;100956.28;5060377;28;20197;-76
2022/01/30 04:08:02;;;;;;;12.50;5.50;;;;;;;6.92;61.26;100974.50;5059792;28;20215;-75
2022/01/30 04:10:28;;;;;;;22.07;6.30;;;;;;;6.76;61.35;100949.00;5059721;28;20494;-75
2022/01/30 04:12:54;;;;;;;18.90;6.10;;;;;;;6.60;61.69;100958.91;5059691;28;20473;-76
2022/01/30 04:15:19;;;;;;;20.23;6.53;;;;;;;6.97;60.38;100940.94;5059676;28;20713;-77
2022/01/30 04:17:45;;;;;;;17.93;6.63;;;;;;;6.86;62.39;100974.31;5059597;28;20177;-74
2022/01/30 04:20:10;;;;;;;20.47;6.47;;;;;;;6.93;61.63;100968.50;5060224;28;20177;-76
2022/01/30 04:22:36;;;;;;;27.00;7.40;;;;;;;6.63;61.93;100950.34;5059499;28;20178;-75
2022/01/30 04:25:01;;;;;;;23.53;6.90;;;;;;;6.91;61.83;100988.28;5059442;28;20483;-74
2022/01/30 04:27:26;;;;;;;17.10;7.00;;;;;;;7.34;61.37;100984.28;5059772;28;20197;-76
2022/01/30 04:29:52;;;;;;;19.70;7.03;;;;;;;6.70;60.34;100989.44;5059430;28;20174;-78
2022/01/30 04:32:17;;;;;;;27.50;7.67;;;;;;;7.39;61.83;100959.38;5059240;28;20177;-77
2022/01/30 04:34:46;;;;;;;23.97;7.17;;;;;;;7.35;63.64;100987.78;5050532;28;20235;-75
2022/01/30 04:37:21;;;;;;;20.10;6.57;;;;;;;6.96;59.22;100991.91;5079214;28;20165;-75
2022/01/30 05:01:38;;;;;;;35.47;7.17;;;;;;;7.39;59.55;101052.75;5078973;28;20624;-77
2022/01/30 05:09:25;;;;;;;24.77;6.63;;;;;;;7.35;61.66;101068.19;5078942;28;20427;-75
2022/01/30 05:11:50;;;;;;;25.57;7.00;;;;;;;7.53;60.97;101062.63;5078490;28;20419;-76
2022/01/30 05:14:16;;;;;;;17.30;6.40;;;;;;;7.40;64.37;101080.44;5078376;28;20255;-75
2022/01/30 05:16:42;;;;;;;23.40;7.27;;;;;;;7.45;61.34;101082.28;5078562;28;20211;-76
2022/01/30 05:19:07;;;;;;;27.13;8.10;;;;;;;7.42;60.92;101101.22;5061406;28;20165;-77
2022/01/30 05:21:33;;;;;;;31.40;7.07;;;;;;;7.01;61.60;101078.47;5078428;28;20183;-76
2022/01/30 05:23:58;;;;;;;23.97;7.17;;;;;;;7.26;60.52;101099.91;5078444;28;20169;-76
2022/01/30 05:26:25;;;;;;;27.33;7.20;;;;;;;7.72;61.09;101084.75;5078772;28;20185;-77
2022/01/30 05:28:51;;;;;;;26.30;7.77;;;;;;;7.12;60.96;101085.66;5078394;28;20252;-76
2022/01/30 05:31:17;;;;;;;24.30;6.90;;;;;;;7.21;60.36;101097.19;5078391;28;20438;-76
2022/01/30 05:33:42;;;;;;;19.00;7.63;;;;;;;7.06;60.09;101082.06;5078018;28;20176;-75
2022/01/30 05:36:08;;;;;;;19.87;6.43;;;;;;;7.27;61.95;101096.50;5058217;28;20243;-74
2022/01/30 05:38:34;;;;;;;26.63;8.50;;;;;;;7.09;59.58;101086.47;5040984;28;20173;-77
2022/01/30 05:40:59;;;;;;;25.30;7.73;;;;;;;7.12;60.80;101096.03;5058746;28;20185;-76
2022/01/30 05:43:28;;;;;;;20.10;6.90;;;;;;;7.04;61.56;101101.00;5058153;28;20416;-78
2022/01/30 05:46:06;;;;;;;21.33;7.57;;;;;;;7.04;60.87;101070.75;5058375;28;20204;-77
2022/01/30 05:48:32;;;;;;;23.00;7.00;;;;;;;6.82;60.58;101092.56;5042600;28;20766;-77
2022/01/30 05:50:57;;;;;;;31.87;8.23;;;;;;;6.99;61.08;101124.16;5063953;28;20435;-76
2022/01/30 05:53:23;;;;;;;16.87;6.20;;;;;;;7.16;62.45;101079.75;5074440;28;20183;-77
2022/01/30 05:55:50;;;;;;;24.47;7.70;;;;;;;7.05;61.60;101108.81;5071345;28;20189;-75
2022/01/30 05:58:15;;;;;;;30.30;7.20;;;;;;;7.22;61.20;101100.66;5067702;28;20169;-74
2022/01/30 06:00:40;;;;;;;39.97;8.10;;;;;;;6.64;62.02;101098.03;5059650;28;20394;-76
2022/01/30 06:03:05;;;;;;;25.83;7.83;;;;;;;6.49;62.60;101100.16;5058126;28;20232;-76
2022/01/30 06:05:31;;;;;;;22.93;7.40;;;;;;;7.00;62.07;101102.63;5059327;28;20188;-76
2022/01/30 06:07:57;;;;;;;28.47;7.20;;;;;;;7.01;62.22;101094.00;5062785;28;20193;-75
2022/01/30 06:10:25;;;;;;;25.83;7.87;;;;;;;6.65;64.02;101086.00;5062234;28;20183;-77
2022/01/30 06:12:51;;;;;;;19.33;7.13;;;;;;;6.64;67.21;101077.31;5062095;28;20415;-77
2022/01/30 06:15:17;;;;;;;27.40;7.67;;;;;;;6.47;64.74;101110.47;5062557;28;20394;-77
2022/01/30 06:17:43;;;;;;;20.80;6.60;;;;;;;6.67;65.04;101105.03;5062026;28;20166;-77
2022/01/30 06:20:09;;;;;;;21.67;6.83;;;;;;;6.69;64.93;101121.53;5061928;28;20244;-77
2022/01/30 06:22:34;;;;;;;24.53;7.17;;;;;;;6.63;66.30;101124.81;5062438;28;20414;-77
2022/01/30 06:25:00;;;;;;;27.70;7.37;;;;;;;6.56;64.30;101120.25;5061728;28;20416;-76
2022/01/30 06:27:25;;;;;;;24.27;6.90;;;;;;;6.25;65.80;101147.72;5061760;28;20197;-76
2022/01/30 06:29:51;;;;;;;31.23;6.70;;;;;;;6.03;66.45;101110.75;5061997;28;20264;-75
2022/01/30 06:32:16;;;;;;;23.00;6.10;;;;;;;6.68;66.08;101143.94;5061657;28;20166;-76
2022/01/30 06:34:42;;;;;;;33.17;8.20;;;;;;;6.53;66.10;101138.28;5061287;28;20264;-76
2022/01/30 06:37:07;;;;;;;27.73;7.70;;;;;;;6.18;67.36;101136.31;5061977;28;20162;-75
2022/01/30 06:39:32;;;;;;;21.57;6.30;;;;;;;6.76;66.86;101156.28;5061359;28;20189;-77
2022/01/30 06:41:58;;;;;;;24.10;7.77;;;;;;;6.78;65.79;101158.09;5044043;28;20178;-77
2022/01/30 06:44:23;;;;;;;20.33;7.33;;;;;;;7.05;65.94;101191.78;5061768;28;20212;-75
2022/01/30 06:46:48;;;;;;;26.23;7.23;;;;;;;6.80;65.10;101142.59;5061230;28;20197;-76
2022/01/30 06:49:13;;;;;;;24.50;7.30;;;;;;;7.11;64.37;101166.88;5061305;28;20166;-76
2022/01/30 06:51:39;;;;;;;22.70;6.67;;;;;;;6.91;63.87;101149.88;5061713;28;20468;-77
2022/01/30 06:54:04;;;;;;;26.53;6.60;;;;;;;7.15;63.67;101181.69;5061012;28;20215;-76
2022/01/30 06:56:29;;;;;;;20.00;6.17;;;;;;;6.71;63.14;101203.66;5043719;28;20165;-76
2022/01/30 06:58:56;;;;;;;18.23;7.00;;;;;;;6.72;63.56;101187.28;5062120;28;20205;-76
2022/01/30 07:01:23;;;;;;;19.53;5.80;;;;;;;7.37;62.80;101210.06;5061042;28;20231;-76
2022/01/30 07:03:48;;;;;;;18.70;7.03;;;;;;;6.99;62.55;101224.41;5043590;28;20455;-75
2022/01/30 07:06:13;;;;;;;14.40;6.03;;;;;;;6.79;62.93;101211.66;5061624;28;20403;-76
2022/01/30 07:08:39;;;;;;;22.17;7.03;;;;;;;6.98;63.42;101212.25;5060990;28;20162;-76
2022/01/30 07:11:04;;;;;;;17.03;6.60;;;;;;;6.93;64.78;101229.38;5061120;28;20176;-77
2022/01/30 07:13:29;;;;;;;19.50;7.20;;;;;;;6.91;63.09;101242.28;5060249;28;20185;-78
2022/01/30 07:15:55;;;;;;;21.23;7.43;;;;;;;6.80;63.82;101230.69;5060355;28;20176;-78
2022/01/30 07:18:20;;;;;;;28.90;6.67;;;;;;;7.15;63.29;101226.66;5059802;28;20551;-77
2022/01/30 07:20:45;;;;;;;22.00;7.00;;;;;;;6.97;62.84;101257.16;5061068;28;20212;-76
2022/01/30 07:23:10;;;;;;;28.20;8.17;;;;;;;6.99;63.06;101266.75;5060385;28;20192;-76
2022/01/30 07:25:36;;;;;;;22.53;7.30;;;;;;;6.79;63.69;101263.50;5060594;28;20548;-75
2022/01/30 07:28:01;;;;;;;25.07;7.67;;;;;;;6.89;63.69;101265.56;5060787;28;20212;-76
2022/01/30 07:30:26;;;;;;;33.53;8.30;;;;;;;7.25;62.68;101266.69;5060515;28;20181;-75
2022/01/30 07:32:52;;;;;;;24.63;7.73;;;;;;;7.33;62.27;101266.94;5060096;28;20193;-75
2022/01/30 07:35:17;;;;;;;31.43;9.23;;;;;;;7.12;63.28;101259.38;5073910;28;20292;-76
2022/01/30 07:37:43;;;;;;;30.67;8.13;;;;;;;6.90;63.31;101262.16;5062890;28;20429;-76
2022/01/30 07:40:09;;;;;;;26.33;7.63;;;;;;;7.06;62.12;101254.88;5063012;28;20185;-77
2022/01/30 07:42:34;;;;;;;28.87;8.27;;;;;;;6.91;61.08;101269.09;5080356;28;20530;-74
2022/01/30 07:45:00;;;;;;;30.30;8.43;;;;;;;6.99;60.38;101266.75;5079979;28;20481;-75
2022/01/30 07:47:25;;;;;;;36.80;8.57;;;;;;;7.02;60.17;101265.97;5077910;28;20188;-75
2022/01/30 07:49:53;;;;;;;31.27;8.73;;;;;;;6.88;59.60;101289.72;5060018;28;20170;-75
2022/01/30 07:52:20;;;;;;;25.53;7.30;;;;;;;7.04;59.30;101285.94;5059940;28;20472;-75
2022/01/30 07:54:45;;;;;;;29.27;9.10;;;;;;;6.81;59.37;101282.56;5060357;28;20378;-75
2022/01/30 07:57:11;;;;;;;23.13;7.77;;;;;;;6.71;59.65;101281.41;5059995;28;20386;-75
2022/01/30 07:59:36;;;;;;;30.77;8.90;;;;;;;7.48;57.82;101282.13;5059833;28;20173;-76
2022/01/30 08:02:02;;;;;;;31.30;8.67;;;;;;;7.24;58.14;101293.50;5060346;28;20475;-76
2022/01/30 08:04:28;;;;;;;28.37;7.80;;;;;;;7.27;57.89;101314.34;5059683;28;20219;-76
2022/01/30 08:06:54;;;;;;;24.50;8.27;;;;;;;6.82;58.29;101311.94;5059847;28;20205;-76
2022/01/30 08:09:19;;;;;;;21.67;7.40;;;;;;;7.30;58.00;101316.16;5060601;28;20464;-76
2022/01/30 08:11:44;;;;;;;32.80;7.43;;;;;;;7.17;57.72;101333.91;5059675;28;20423;-72
2022/01/30 08:14:10;;;;;;;24.30;7.33;;;;;;;7.06;56.41;101325.75;5059319;28;20227;-72
2022/01/30 08:16:35;;;;;;;30.43;7.60;;;;;;;7.00;56.85;101319.50;5059781;28;20166;-73
2022/01/30 08:19:01;;;;;;;20.93;7.47;;;;;;;7.20;56.95;101327.94;5060139;28;20173;-72
2022/01/30 08:21:26;;;;;;;32.30;8.63;;;;;;;7.20;56.38;101333.13;5060513;28;20165;-72
2022/01/30 08:23:51;;;;;;;31.13;7.40;;;;;;;7.15;56.19;101332.09;5079923;28;20176;-72
2022/01/30 08:26:17;;;;;;;28.90;8.60;;;;;;;7.48;55.82;101365.13;5079802;28;20261;-72
2022/01/30 08:28:42;;;;;;;25.10;7.57;;;;;;;7.14;56.56;101361.44;5078912;28;20173;-74
2022/01/30 08:31:07;;;;;;;24.47;8.40;;;;;;;6.88;56.02;101338.97;5079538;28;20183;-72
2022/01/30 08:33:33;;;;;;;30.97;7.83;;;;;;;7.14;55.38;101354.53;5079210;28;20259;-75
2022/01/30 08:35:58;;;;;;;23.47;7.57;;;;;;;7.08;54.91;101364.69;5078900;28;20228;-76
2022/01/30 08:38:23;;;;;;;24.40;6.87;;;;;;;7.13;54.13;101360.56;5079554;28;20171;-71
2022/01/30 08:40:49;;;;;;;30.43;9.40;;;;;;;7.35;54.28;101375.13;5078971;28;20204;-71
2022/01/30 08:43:15;;;;;;;19.00;6.67;;;;;;;7.41;52.52;101387.41;5078935;28;20173;-73
2022/01/30 08:45:41;;;;;;;35.43;9.33;;;;;;;7.51;51.71;101394.66;5079832;28;20210;-74
2022/01/30 08:48:07;;;;;;;27.80;9.20;;;;;;;7.31;52.39;101394.00;5083292;28;20450;-73
2022/01/30 08:50:33;;;;;;;24.30;6.70;;;;;;;7.12;51.72;101413.25;5089916;28;20776;-74
2022/01/30 08:52:58;;;;;;;26.33;8.10;;;;;;;7.01;51.76;101405.09;5087533;28;20175;-73
2022/01/30 08:55:27;;;;;;;30.47;9.43;;;;;;;7.13;51.22;101414.09;5086151;28;20173;-75
2022/01/30 08:57:52;;;;;;;29.23;7.93;;;;;;;7.48;50.91;101411.81;5045990;28;20173;-77
2022/01/30 09:00:18;;;;;;;18.23;7.23;;;;;;;7.00;51.09;101411.09;5080075;28;20415;-74
2022/01/30 09:02:43;;;;;;;21.40;7.20;;;;;;;7.10;51.67;101401.06;5079256;28;20527;-72
2022/01/30 09:05:11;;;;;;;24.77;7.30;;;;;;;7.23;51.40;101434.34;5078499;28;20173;-72
2022/01/30 09:07:36;;;;;;;20.30;7.00;;;;;;;7.06;51.78;101413.91;5079124;28;20197;-71
2022/01/30 09:10:03;;;;;;;21.40;7.20;;;;;;;7.67;51.26;101434.06;5078500;28;20473;-76
2022/01/30 09:12:29;;;;;;;29.73;9.33;;;;;;;7.52;51.39;101434.44;5078415;28;20172;-75
2022/01/30 09:14:55;;;;;;;35.10;7.77;;;;;;;7.48;52.51;101453.34;5078634;28;20469;-74
2022/01/30 09:17:22;;;;;;;21.83;7.47;;;;;;;7.57;51.99;101440.69;5078392;28;20169;-75
2022/01/30 09:19:47;;;;;;;30.40;8.27;;;;;;;7.40;52.11;101448.78;5078465;28;20157;-74
2022/01/30 09:22:15;;;;;;;25.43;7.60;;;;;;;7.64;52.44;101465.13;5071196;28;20419;-73
2022/01/30 09:24:41;;;;;;;24.37;8.00;;;;;;;7.17;53.39;101454.88;5058272;28;20166;-74
2022/01/30 09:27:07;;;;;;;27.20;8.60;;;;;;;7.80;53.07;101450.94;5058169;28;20438;-74
2022/01/30 09:29:33;;;;;;;24.07;7.17;;;;;;;7.31;54.72;101471.81;5058282;28;20251;-73
2022/01/30 09:32:00;;;;;;;27.10;8.30;;;;;;;7.54;54.00;101461.34;5058081;28;20447;-73
2022/01/30 09:34:25;;;;;;;28.90;7.57;;;;;;;7.50;53.60;101472.44;5040701;28;20459;-73
2022/01/30 09:36:50;;;;;;;33.97;7.70;;;;;;;7.61;53.93;101480.59;5058505;28;20690;-75
2022/01/30 09:39:16;;;;;;;19.07;8.43;;;;;;;7.69;54.35;101479.13;5040732;28;20449;-74
2022/01/30 09:41:45;;;;;;;19.63;7.13;;;;;;;8.05;53.04;101471.66;5057793;28;20173;-71
2022/01/30 09:44:10;;;;;;;34.40;8.77;;;;;;;7.36;53.96;101491.00;5040822;28;20153;-72
2022/01/30 09:46:39;;;;;;;30.83;8.10;;;;;;;7.87;54.48;101497.91;5057769;28;20460;-71
2022/01/30 09:49:06;;;;;;;20.87;7.13;;;;;;;7.84;52.72;101495.22;5058036;28;20252;-72
2022/01/30 09:51:31;;;;;;;26.17;8.00;;;;;;;7.49;53.31;101496.63;5058440;28;20797;-72
2022/01/30 09:53:57;;;;;;;28.77;9.20;;;;;;;7.78;51.60;101495.03;5040466;28;20422;-76
2022/01/30 09:56:22;;;;;;;34.60;9.50;;;;;;;7.63;52.10;101510.97;5058087;28;20253;-74
2022/01/30 09:58:47;;;;;;;36.67;9.20;;;;;;;7.85;52.33;101512.56;5058164;28;20418;-76
2022/01/30 10:01:12;;;;;;;28.50;9.37;;;;;;;7.58;52.59;101520.28;5057715;28;20441;-75
2022/01/30 10:03:38;;;;;;;24.97;7.20;;;;;;;7.34;52.45;101479.69;5057751;28;20173;-75
2022/01/30 10:06:05;;;;;;;29.40;10.13;;;;;;;7.05;53.39;101507.19;5058190;28;20220;-76
2022/01/30 10:08:30;;;;;;;31.97;8.60;;;;;;;7.52;53.51;101523.56;5057725;28;20225;-75
2022/01/30 10:11:15;;;;;;;27.83;8.13;;;;;;;7.62;52.13;101529.94;5057687;28;20450;-76
2022/01/30 10:13:40;;;;;;;24.33;8.30;;;;;;;7.38;53.68;101524.78;5057816;28;20170;-75
2022/01/30 10:16:06;;;;;;;27.47;7.70;;;;;;;7.84;52.01;101525.50;5057655;28;20408;-76
2022/01/30 10:18:43;;;;;;;27.97;7.73;;;;;;;7.77;53.57;101524.41;5058202;28;20204;-76
2022/01/30 10:21:18;;;;;;;30.07;8.17;;;;;;;8.15;53.31;101514.38;5040483;28;20597;-75
2022/01/30 10:23:43;;;;;;;37.87;8.80;;;;;;;7.63;53.26;101536.91;5037813;28;20457;-76
2022/01/30 10:26:12;;;;;;;33.30;8.40;;;;;;;7.85;52.98;101548.03;5037606;28;20773;-79
2022/01/30 10:28:38;;;;;;;31.63;7.90;;;;;;;7.80;52.94;101546.97;5037714;28;20178;-83
2022/01/30 10:31:05;;;;;;;26.43;7.97;;;;;;;7.85;53.14;101548.91;5038499;28;20719;-85
2022/01/30 10:33:45;;;;;;;31.67;8.40;;;;;;;7.59;52.90;101551.47;5038138;28;20441;-79
2022/01/30 10:36:12;;;;;;;29.23;8.77;;;;;;;8.16;52.99;101555.13;5037779;28;20396;-82
2022/01/30 10:38:40;;;;;;;27.27;8.40;;;;;;;7.97;52.25;101566.59;5037736;28;20661;-77
2022/01/30 10:41:15;;;;;;;31.87;8.83;;;;;;;8.03;52.19;101574.59;5037910;28;20832;-86
2022/01/30 10:43:56;;;;;;;34.73;8.57;;;;;;;7.63;53.13;101560.28;5022005;28;20402;-81
2022/01/30 10:46:23;;;;;;;29.23;7.43;;;;;;;8.32;51.06;101564.28;5037736;28;20829;-77
2022/01/30 10:48:55;;;;;;;18.70;7.70;;;;;;;8.47;49.99;101563.03;5037688;28;20425;-78
2022/01/30 10:51:21;;;;;;;28.97;8.03;;;;;;;8.64;49.63;101585.22;5056507;28;20412;-72
2022/01/30 10:53:49;;;;;;;29.77;8.73;;;;;;;8.43;50.12;101586.28;5060020;28;20512;-72
2022/01/30 10:56:27;;;;;;;32.13;8.43;;;;;;;8.54;49.35;101580.59;5061276;28;20548;-74
2022/01/30 10:59:07;;;;;;;33.10;7.60;;;;;;;8.08;50.94;101565.25;5043732;28;20423;-72
2022/01/30 11:01:33;;;;;;;28.03;8.30;;;;;;;8.87;49.96;101587.66;5060922;28;20473;-71
2022/01/30 11:04:00;;;;;;;28.30;7.43;;;;;;;8.39;50.56;101589.63;5060728;28;20782;-70
2022/01/30 11:06:28;;;;;;;26.93;7.90;;;;;;;8.18;50.54;101581.13;5043691;28;20420;-73
2022/01/30 11:08:54;;;;;;;30.07;7.27;;;;;;;8.26;50.37;101590.06;5061295;28;20408;-73
2022/01/30 11:17:03;;;;;;;25.40;7.83;;;;;;;8.84;48.62;101587.59;5039101;28;20523;-73
2022/01/30 11:19:34;;;;;;;18.00;6.80;;;;;;;8.97;47.61;101602.72;5060658;28;20419;-73
2022/01/30 11:22:02;;;;;;;22.27;7.13;;;;;;;8.91;48.25;101620.72;5060345;28;20567;-73
2022/01/30 11:24:28;;;;;;;30.87;8.00;;;;;;;8.96;48.50;101616.56;5060175;28;20645;-73
2022/01/30 11:26:54;;;;;;;24.67;8.37;;;;;;;8.63;49.86;101604.25;5060848;28;20427;-75
2022/01/30 11:29:20;;;;;;;22.43;7.70;;;;;;;8.47;50.61;101618.50;5043562;28;20169;-76
2022/01/30 11:31:46;;;;;;;21.83;8.30;;;;;;;8.84;49.86;101603.19;5043632;28;20399;-75
2022/01/30 11:34:12;;;;;;;19.53;7.80;;;;;;;9.00;48.75;101610.59;5060337;28;20471;-77
2022/01/30 11:36:42;;;;;;;21.77;6.70;;;;;;;9.08;48.43;101619.53;5060135;28;20675;-78
2022/01/30 11:39:09;;;;;;;21.67;7.87;;;;;;;9.33;46.90;101612.44;5042879;28;20181;-75
2022/01/30 11:41:35;;;;;;;24.03;6.90;;;;;;;8.85;47.83;101615.31;5043022;28;20394;-76
2022/01/30 11:44:19;;;;;;;26.63;7.80;;;;;;;9.26;45.75;101613.97;5063460;28;20387;-76
2022/01/30 11:47:04;;;;;;;25.00;7.20;;;;;;;9.49;45.74;101610.28;5071148;28;20247;-77
2022/01/30 11:49:43;;;;;;;19.30;6.43;;;;;;;9.50;44.01;101614.63;5070212;28;20387;-78
2022/01/30 11:52:10;;;;;;;16.60;6.00;;;;;;;9.13;45.45;101622.25;5067043;28;20503;-77
2022/01/30 11:54:44;;;;;;;22.77;6.60;;;;;;;8.81;45.66;101621.25;5062448;28;20435;-73
2022/01/30 11:57:18;;;;;;;23.50;6.80;;;;;;;8.34;47.72;101622.38;5060230;28;20430;-72
2022/01/30 11:59:43;;;;;;;20.07;7.50;;;;;;;8.90;46.40;101634.56;5059772;28;20478;-71
2022/01/30 12:02:29;;;;;;;27.90;8.93;;;;;;;8.46;48.46;101631.41;5059736;28;20406;-75
2022/01/30 12:05:01;;;;;;;18.83;6.97;;;;;;;8.61;48.07;101641.47;5059423;28;20177;-74
2022/01/30 12:07:47;;;;;;;21.40;7.63;;;;;;;8.77;47.60;101634.19;5059486;28;20499;-76
2022/01/30 12:10:15;;;;;;;21.60;6.87;;;;;;;8.80;47.17;101640.31;5059565;28;20391;-78
2022/01/30 12:12:56;;;;;;;26.80;7.63;;;;;;;8.64;47.96;101646.75;5059434;28;20394;-78
2022/01/30 12:15:44;;;;;;;18.33;6.70;;;;;;;9.07;47.46;101646.34;5059598;28;20416;-73
2022/01/30 12:18:10;;;;;;;25.87;7.57;;;;;;;8.65;47.98;101638.13;5059296;28;20488;-73
2022/01/30 12:21:11;;;;;;;24.90;7.27;;;;;;;8.91;48.93;101652.81;5042035;28;20424;-75
2022/01/30 12:23:39;;;;;;;20.03;7.47;;;;;;;8.62;49.36;101657.09;5058926;28;20402;-75
2022/01/30 12:26:09;;;;;;;26.53;7.43;;;;;;;8.71;49.53;101648.69;5059267;28;20395;-76